Cururupu, Brazil
Current Conditions -  °F | °C
As of 3:00 AM on Monday 24 Nov 2014 (Local Time) from SBSL Reporting Station
Few Clouds Few Clouds  
Wind Chill: 77°   Ceiling: Unl
Heat Index: 79°   Visibility: 6mi
Dew Point: 70°   Wind: 7mph
Humidity: 78%   Direction: 40°NE
Pressure: 29.83"   Gusts: NA
Location:  1.83°S, 44.87°W
Report Text: SBSL 240600Z 04006KT 9999 FEW017 25/21 Q1010
Loading
Personal Weather Stations






























Interactive Weather Map New forecast layout! Learn more

10-Day Weather Forecast

Advertisements
Track Severe Weather on mobile